createdAt,value
2023-01-07T00:01:46.871Z,98560.84
2023-01-07T00:04:19.659Z,98564.28
2023-01-07T00:06:54.282Z,98564.28
2023-01-07T00:09:24.833Z,98559.16
2023-01-07T00:11:54.738Z,98553.16
2023-01-07T00:14:24.022Z,98556.56
2023-01-07T00:16:53.894Z,98565.06
2023-01-07T00:19:30.686Z,98553.97
2023-01-07T00:22:01.650Z,98551.50
2023-01-07T00:24:30.867Z,98548.94
2023-01-07T00:27:00.392Z,98552.28
2023-01-07T00:29:29.451Z,98548.84
2023-01-07T00:31:58.445Z,98544.59
2023-01-07T00:34:30.207Z,98542.06
2023-01-07T00:37:19.506Z,98546.28
2023-01-07T00:39:50.218Z,98545.50
2023-01-07T00:42:48.562Z,98547.28
2023-01-07T00:45:17.805Z,98538.78
2023-01-07T00:47:47.392Z,98536.25
2023-01-07T00:50:17.836Z,98539.66
2023-01-07T00:52:46.801Z,98538.06
2023-01-07T00:55:16.431Z,98541.41
2023-01-07T00:57:46.332Z,98542.31
2023-01-07T01:00:18.257Z,98537.25
2023-01-07T01:02:48.431Z,98536.41
2023-01-07T01:05:19.563Z,98535.53
2023-01-07T01:07:49.135Z,98533.81
2023-01-07T01:10:20.255Z,98533.75
2023-01-07T01:12:50.542Z,98536.38
2023-01-07T01:15:20.057Z,98532.97
2023-01-07T01:17:49.505Z,98526.13
2023-01-07T01:20:21.230Z,98538.81
2023-01-07T01:22:50.258Z,98526.97
2023-01-07T01:25:19.530Z,98532.03
2023-01-07T01:27:50.280Z,98533.84
2023-01-07T01:30:19.581Z,98528.78
2023-01-07T01:32:48.582Z,98526.19
2023-01-07T01:35:19.037Z,98538.97
2023-01-07T01:37:47.697Z,98527.03
2023-01-07T01:40:17.068Z,98524.47
2023-01-07T01:42:46.395Z,98521.06
2023-01-07T01:45:15.391Z,98527.91
2023-01-07T01:47:48.444Z,98521.97
2023-01-07T01:50:24.543Z,98526.22
2023-01-07T01:52:59.988Z,98527.91
2023-01-07T01:55:32.737Z,98523.59
2023-01-07T01:58:04.099Z,98523.59
2023-01-07T02:00:34.415Z,98516.72
2023-01-07T02:03:06.372Z,98510.63
2023-01-07T02:05:42.009Z,98508.06
2023-01-07T02:08:11.223Z,98511.47
2023-01-07T02:10:41.235Z,98495.28
2023-01-07T02:13:32.781Z,98499.59
2023-01-07T02:16:10.079Z,98505.69
2023-01-07T02:18:53.286Z,98504.03
2023-01-07T02:21:41.395Z,98492.97
2023-01-07T02:24:43.961Z,98499.78
2023-01-07T02:27:23.259Z,98508.25
2023-01-07T02:30:28.690Z,98503.91
2023-01-07T02:33:23.816Z,98504.03
2023-01-07T02:36:08.200Z,98497.22
2023-01-07T02:38:41.369Z,98499.72
2023-01-07T02:41:19.752Z,98488.63
2023-01-07T02:43:58.772Z,98484.38
2023-01-07T02:46:33.141Z,98487.81
2023-01-07T02:49:08.856Z,98479.25
2023-01-07T02:51:39.369Z,98480.97
2023-01-07T02:54:12.559Z,98480.13
2023-01-07T02:56:54.106Z,98475.06
2023-01-07T02:59:41.975Z,98469.09
2023-01-07T03:02:29.028Z,98471.66
2023-01-07T03:05:30.038Z,98463.94
2023-01-07T03:08:14.789Z,98460.53
2023-01-07T03:10:52.386Z,98461.31
2023-01-07T03:13:26.049Z,98468.88
2023-01-07T03:16:02.083Z,98463.84
2023-01-07T03:18:34.247Z,98452.84
2023-01-07T03:21:08.969Z,98457.00
2023-01-07T03:23:42.992Z,98452.81
2023-01-07T03:26:11.777Z,98457.06
2023-01-07T03:28:42.725Z,98449.34
2023-01-07T03:31:15.216Z,98434.03
2023-01-07T03:33:52.061Z,98444.19
2023-01-07T03:36:25.481Z,98449.16
2023-01-07T03:38:55.019Z,98446.59
2023-01-07T03:41:40.491Z,98433.00
2023-01-07T03:44:08.999Z,98438.94
2023-01-07T03:46:38.953Z,98434.75
2023-01-07T03:49:08.159Z,98425.41
2023-01-07T03:51:40.434Z,98437.34
2023-01-07T03:54:08.736Z,98424.44
2023-01-07T03:56:37.310Z,98437.28
2023-01-07T03:59:05.956Z,98422.81
2023-01-07T04:01:35.201Z,98426.38
2023-01-07T04:04:04.948Z,98420.44
2023-01-07T04:06:33.281Z,98416.22
2023-01-07T04:09:03.844Z,98409.44
2023-01-07T04:11:32.170Z,98407.75
2023-01-07T04:14:00.972Z,98406.03
2023-01-07T04:16:30.967Z,98403.50
2023-01-07T04:18:59.536Z,98400.91
2023-01-07T04:21:27.928Z,98400.84
2023-01-07T04:24:00.697Z,98395.69
2023-01-07T04:26:32.326Z,98399.97
2023-01-07T04:29:00.804Z,98375.31
2023-01-07T04:31:29.173Z,98384.63
2023-01-07T04:33:57.606Z,98384.66
2023-01-07T04:36:26.170Z,98381.22
2023-01-07T04:38:54.454Z,98377.84
2023-01-07T04:41:22.977Z,98380.41
2023-01-07T04:43:53.437Z,98381.25
2023-01-07T04:46:21.743Z,98377.81
2023-01-07T04:48:49.886Z,98374.41
2023-01-07T04:51:20.467Z,98358.25
2023-01-07T04:53:49.162Z,98383.75
2023-01-07T04:56:17.541Z,98367.66
2023-01-07T04:58:45.803Z,98359.09
2023-01-07T05:01:16.545Z,98350.56
2023-01-07T05:03:45.115Z,98347.94
2023-01-07T05:06:13.552Z,98358.84
2023-01-07T05:08:41.809Z,98356.34
2023-01-07T05:11:10.287Z,98344.44
2023-01-07T05:13:40.006Z,98352.13
2023-01-07T05:16:08.717Z,98351.25
2023-01-07T05:18:38.378Z,98339.34
2023-01-07T05:21:07.031Z,98336.75
2023-01-07T05:23:35.240Z,98332.50
2023-01-07T05:26:03.416Z,98323.97
2023-01-07T05:28:32.332Z,98323.16
2023-01-07T05:31:00.542Z,98329.00
2023-01-07T05:33:29.445Z,98309.47
2023-01-07T05:35:59.041Z,98312.97
2023-01-07T05:38:27.387Z,98318.94
2023-01-07T05:40:55.789Z,98328.34
2023-01-07T05:43:25.215Z,98330.91
2023-01-07T05:45:53.414Z,98319.00
2023-01-07T05:48:21.767Z,98320.69
2023-01-07T05:50:50.267Z,98321.63
2023-01-07T05:53:19.865Z,98327.59
2023-01-07T05:55:48.258Z,98325.00
2023-01-07T05:58:16.731Z,98325.91
2023-01-07T06:00:45.191Z,98305.50
2023-01-07T06:03:13.823Z,98308.06
2023-01-07T06:05:43.278Z,98310.56
2023-01-07T06:08:11.760Z,98307.13
2023-01-07T06:10:41.582Z,98307.94
2023-01-07T06:13:10.164Z,98294.34
2023-01-07T06:15:38.320Z,98305.44
2023-01-07T06:18:07.033Z,98314.81
2023-01-07T06:20:35.747Z,98300.34
2023-01-07T06:23:05.102Z,98297.75
2023-01-07T06:25:33.320Z,98285.00
2023-01-07T06:28:03.635Z,98292.47
2023-01-07T06:30:31.829Z,98300.91
2023-01-07T06:33:00.451Z,98292.34
2023-01-07T06:35:28.728Z,98288.09
2023-01-07T06:37:57.183Z,98292.47
2023-01-07T06:40:26.017Z,98295.81
2023-01-07T06:42:54.193Z,98276.97
2023-01-07T06:45:25.125Z,98282.94
2023-01-07T06:47:53.518Z,98277.88
2023-01-07T06:50:21.975Z,98278.75
2023-01-07T06:52:50.296Z,98272.00
2023-01-07T06:55:19.139Z,98277.06
2023-01-07T06:57:47.549Z,98282.16
2023-01-07T07:00:17.050Z,98279.69
2023-01-07T07:02:47.443Z,98278.03
2023-01-07T07:05:16.083Z,98273.75
2023-01-07T07:07:44.387Z,98277.13
2023-01-07T07:10:13.338Z,98273.66
2023-01-07T07:12:41.738Z,98269.38
2023-01-07T07:15:10.830Z,98272.88
2023-01-07T07:17:39.723Z,98275.38
2023-01-07T07:20:11.732Z,98268.47
2023-01-07T07:22:40.103Z,98264.34
2023-01-07T07:25:09.101Z,98266.84
2023-01-07T07:27:37.883Z,98264.28
2023-01-07T07:30:08.638Z,98266.09
2023-01-07T07:32:37.392Z,98267.78
2023-01-07T07:35:06.584Z,98257.50
2023-01-07T07:37:37.123Z,98264.25
2023-01-07T07:40:05.967Z,98253.06
2023-01-07T07:43:10.192Z,98262.44
2023-01-07T07:45:23.542Z,98254.03
2023-01-07T07:47:52.137Z,98241.25
2023-01-07T07:50:20.744Z,98244.69
2023-01-07T07:52:51.321Z,98244.66
2023-01-07T07:55:26.160Z,98243.72
2023-01-07T07:57:55.558Z,98238.69
2023-01-07T08:00:24.148Z,98242.91
2023-01-07T08:02:52.413Z,98242.06
2023-01-07T08:05:20.769Z,98219.91
2023-01-07T08:07:50.586Z,98245.34
2023-01-07T08:10:21.052Z,98247.00
2023-01-07T08:12:50.785Z,98238.47
2023-01-07T08:15:19.760Z,98236.03
2023-01-07T08:17:48.277Z,98226.63
2023-01-07T08:20:16.905Z,98238.44
2023-01-07T08:22:47.224Z,98223.03
2023-01-07T08:25:17.448Z,98214.59
2023-01-07T08:27:45.935Z,98233.25
2023-01-07T08:30:14.632Z,98226.41
2023-01-07T08:32:43.415Z,98211.94
2023-01-07T08:35:12.203Z,98207.63
2023-01-07T08:37:41.260Z,98213.63
2023-01-07T08:40:11.778Z,98200.72
2023-01-07T08:42:42.897Z,98192.25
2023-01-07T08:45:12.956Z,98209.94
2023-01-07T08:47:41.476Z,98201.28
2023-01-07T08:50:10.652Z,98203.09
2023-01-07T08:52:41.295Z,98188.50
2023-01-07T08:55:10.439Z,98181.78
2023-01-07T08:57:38.733Z,98192.03
2023-01-07T09:00:10.469Z,98185.94
2023-01-07T09:02:38.909Z,98190.16
2023-01-07T09:05:08.620Z,98184.97
2023-01-07T09:07:37.475Z,98188.28
2023-01-07T09:10:08.304Z,98191.66
2023-01-07T09:12:37.472Z,98183.78
2023-01-07T09:15:06.949Z,98179.28
2023-01-07T09:17:37.495Z,98174.19
2023-01-07T09:20:07.605Z,98175.94
2023-01-07T09:22:37.809Z,98167.59
2023-01-07T09:25:07.515Z,98173.38
2023-01-07T09:27:36.484Z,98177.56
2023-01-07T09:30:05.463Z,98176.47
2023-01-07T09:32:36.816Z,98174.84
2023-01-07T09:35:06.021Z,98174.59
2023-01-07T09:37:34.665Z,98184.72
2023-01-07T09:40:03.187Z,98170.22
2023-01-07T09:42:39.781Z,98172.91
2023-01-07T09:45:18.722Z,98161.88
2023-01-07T09:47:51.821Z,98180.66
2023-01-07T09:50:34.849Z,98183.34
2023-01-07T09:53:09.673Z,98173.97
2023-01-07T09:56:11.614Z,98178.84
2023-01-07T09:58:29.199Z,98164.44
2023-01-07T10:01:02.058Z,98156.75
2023-01-07T10:03:49.440Z,98170.22
2023-01-07T10:06:38.427Z,98161.63
2023-01-07T10:09:23.318Z,98154.81
2023-01-07T10:12:03.387Z,98151.19
2023-01-07T10:14:45.783Z,98145.13
2023-01-07T10:17:24.804Z,98140.78
2023-01-07T10:20:02.483Z,98139.22
2023-01-07T10:22:37.266Z,98133.78
2023-01-07T10:25:15.547Z,98119.16
2023-01-07T10:27:46.983Z,98113.81
2023-01-07T10:30:21.557Z,98115.44
2023-01-07T10:32:55.170Z,98109.53
2023-01-07T10:35:30.556Z,98096.56
2023-01-07T10:38:05.539Z,98104.81
2023-01-07T10:40:44.484Z,98086.75
2023-01-07T10:43:29.731Z,98083.22
2023-01-07T10:46:16.418Z,98076.16
2023-01-07T10:49:13.463Z,98075.34
2023-01-07T10:52:11.754Z,98067.41
2023-01-07T10:55:21.803Z,98060.41
2023-01-07T10:57:51.022Z,98060.28
2023-01-07T11:00:20.897Z,98059.44
2023-01-07T11:02:59.170Z,98061.94
2023-01-07T11:05:38.179Z,98059.66
2023-01-07T11:08:14.807Z,98063.25
2023-01-07T11:10:44.369Z,98042.47
2023-01-07T11:13:17.862Z,98047.25
2023-01-07T11:15:51.933Z,98043.19
2023-01-07T11:18:23.615Z,98045.19
2023-01-07T11:20:53.431Z,98029.31
2023-01-07T11:23:32.278Z,98023.16
2023-01-07T11:26:12.272Z,98018.44
2023-01-07T11:28:50.110Z,98019.81
2023-01-07T11:31:19.698Z,98023.81
2023-01-07T11:34:02.244Z,98015.50
2023-01-07T11:36:42.461Z,98017.75
2023-01-07T11:39:22.157Z,98007.34
2023-01-07T11:41:56.393Z,98010.22
2023-01-07T11:44:27.660Z,97998.53
2023-01-07T11:46:57.275Z,97995.63
2023-01-07T11:49:29.391Z,97997.31
2023-01-07T11:51:59.019Z,97988.59
2023-01-07T11:54:32.180Z,97987.59
2023-01-07T11:57:15.214Z,97977.91
2023-01-07T11:59:44.148Z,97970.81
2023-01-07T12:02:26.025Z,97973.16
2023-01-07T12:05:14.704Z,97968.06
2023-01-07T12:07:47.049Z,97956.44
2023-01-07T12:10:32.938Z,97957.13
2023-01-07T12:13:04.924Z,97952.34
2023-01-07T12:15:37.933Z,97953.31
2023-01-07T12:18:39.547Z,97950.63
2023-01-07T12:21:41.534Z,97944.28
2023-01-07T12:24:27.794Z,97932.06
2023-01-07T12:27:09.606Z,97933.66
2023-01-07T12:29:48.297Z,97921.50
2023-01-07T12:32:32.794Z,97936.13
2023-01-07T12:35:15.227Z,97924.84
2023-01-07T12:37:49.379Z,97934.91
2023-01-07T12:40:32.000Z,97932.22
2023-01-07T12:43:08.011Z,97942.75
2023-01-07T12:45:42.978Z,97933.38
2023-01-07T12:48:22.383Z,97941.28
2023-01-07T12:50:55.233Z,97922.53
2023-01-07T12:53:30.644Z,97931.16
2023-01-07T12:56:08.086Z,97920.03
2023-01-07T12:58:53.104Z,97928.69
2023-01-07T13:01:30.485Z,97914.94
2023-01-07T13:04:10.547Z,97906.94
2023-01-07T13:06:46.662Z,97906.19
2023-01-07T13:09:24.390Z,97904.84
2023-01-07T13:12:41.128Z,97899.19
2023-01-07T13:15:12.797Z,97892.22
2023-01-07T13:17:45.897Z,97881.34
2023-01-07T13:20:16.662Z,97882.75
2023-01-07T13:22:51.051Z,97870.47
2023-01-07T13:25:33.153Z,97866.16
2023-01-07T13:28:38.050Z,97860.38
2023-01-07T13:31:34.632Z,97859.53
2023-01-07T13:34:15.869Z,97861.28
2023-01-07T13:36:51.551Z,97858.69
2023-01-07T13:39:42.077Z,97845.09
2023-01-07T13:42:29.700Z,97846.03
2023-01-07T13:45:03.722Z,97840.56
2023-01-07T13:47:42.340Z,97831.91
2023-01-07T13:50:24.132Z,97834.75
2023-01-07T13:53:01.797Z,97834.22
2023-01-07T13:55:38.504Z,97828.25
2023-01-07T13:58:54.164Z,97825.94
2023-01-07T14:01:23.884Z,97829.56
2023-01-07T14:03:55.635Z,97829.59
2023-01-07T14:06:43.014Z,97829.00
2023-01-07T14:09:37.473Z,97832.72
2023-01-07T14:12:41.551Z,97832.09
2023-01-07T14:15:29.685Z,97825.25
2023-01-07T14:18:32.765Z,97822.75
2023-01-07T14:21:16.195Z,97825.41
2023-01-07T14:23:55.037Z,97817.22
2023-01-07T14:26:34.764Z,97824.09
2023-01-07T14:29:35.317Z,97827.56
2023-01-07T14:32:33.111Z,97825.03
2023-01-07T14:35:07.693Z,97834.59
2023-01-07T14:37:40.079Z,97831.34
2023-01-07T14:41:03.036Z,97827.81
2023-01-07T14:44:06.418Z,97824.97
2023-01-07T14:46:54.549Z,97827.34
2023-01-07T14:50:07.506Z,97824.72
2023-01-07T14:53:32.448Z,97818.91
2023-01-07T14:56:28.840Z,97813.09
2023-01-07T14:59:32.556Z,97825.13
2023-01-07T15:02:31.707Z,97826.28
2023-01-07T15:05:45.735Z,97827.41
2023-01-07T15:08:37.487Z,97810.66
2023-01-07T15:11:25.995Z,97814.34
2023-01-07T15:14:20.176Z,97820.56
2023-01-07T15:16:51.554Z,97823.41
2023-01-07T15:19:21.935Z,97822.66
2023-01-07T15:22:03.578Z,97826.28
2023-01-07T15:24:41.972Z,97823.13
2023-01-07T15:27:20.141Z,97821.53
2023-01-07T15:29:58.273Z,97821.69
2023-01-07T15:32:41.820Z,97826.16
2023-01-07T15:35:17.307Z,97816.84
2023-01-07T15:37:48.301Z,97813.69
2023-01-07T15:40:19.971Z,97818.09
2023-01-07T15:42:51.775Z,97814.00
2023-01-07T15:45:25.039Z,97810.88
2023-01-07T15:47:53.462Z,97816.03
2023-01-07T15:50:28.386Z,97813.59
2023-01-07T15:53:00.278Z,97806.13
2023-01-07T15:55:31.970Z,97816.34
2023-01-07T15:58:05.768Z,97813.94
2023-01-07T16:00:37.020Z,97813.19
2023-01-07T16:03:06.783Z,97821.78
2023-01-07T16:05:38.904Z,97820.16
2023-01-07T16:08:08.760Z,97823.69
2023-01-07T16:10:37.921Z,97827.97
2023-01-07T16:13:08.046Z,97827.31
2023-01-07T16:15:41.534Z,97816.34
2023-01-07T16:18:19.632Z,97827.44
2023-01-07T16:20:56.058Z,97817.31
2023-01-07T16:23:26.397Z,97823.34
2023-01-07T16:25:58.801Z,97828.44
2023-01-07T16:28:32.876Z,97819.97
2023-01-07T16:31:02.916Z,97823.41
2023-01-07T16:33:33.864Z,97821.75
2023-01-07T16:36:06.744Z,97824.38
2023-01-07T16:38:38.010Z,97810.88
2023-01-07T16:41:06.867Z,97821.09
2023-01-07T16:43:45.027Z,97817.91
2023-01-07T16:46:25.074Z,97823.00
2023-01-07T16:49:23.187Z,97825.63
2023-01-07T16:51:53.782Z,97823.19
2023-01-07T16:54:34.598Z,97831.72
2023-01-07T16:57:05.669Z,97813.97
2023-01-07T16:59:36.098Z,97821.56
2023-01-07T17:02:28.881Z,97811.44
2023-01-07T17:05:09.754Z,97797.94
2023-01-07T17:07:40.018Z,97801.34
2023-01-07T17:10:09.547Z,97808.22
2023-01-07T17:12:40.766Z,97803.16
2023-01-07T17:15:34.401Z,97808.34
2023-01-07T17:18:28.872Z,97796.47
2023-01-07T17:20:59.095Z,97793.94
2023-01-07T17:23:41.526Z,97787.19
2023-01-07T17:26:20.114Z,97793.16
2023-01-07T17:28:51.832Z,97789.75
2023-01-07T17:31:21.116Z,97792.31
2023-01-07T17:33:51.728Z,97789.81
2023-01-07T17:36:22.583Z,97777.16
2023-01-07T17:38:51.217Z,97784.75
2023-01-07T17:41:38.589Z,97788.19
2023-01-07T17:44:11.667Z,97780.63
2023-01-07T17:46:40.205Z,97775.56
2023-01-07T17:49:11.064Z,97773.91
2023-01-07T17:51:42.015Z,97785.75
2023-01-07T17:54:20.532Z,97784.94
2023-01-07T17:56:50.583Z,97784.94
2023-01-07T17:59:50.488Z,97794.38
2023-01-07T18:02:21.690Z,97791.00
2023-01-07T18:04:51.574Z,97791.94
2023-01-07T18:07:20.034Z,97789.41
2023-01-07T18:09:48.432Z,97798.78
2023-01-07T18:12:33.879Z,97792.03
2023-01-07T18:15:04.122Z,97776.81
2023-01-07T18:17:32.376Z,97798.88
2023-01-07T18:20:02.069Z,97776.91
2023-01-07T18:22:30.947Z,97791.31
2023-01-07T18:24:59.366Z,97793.03
2023-01-07T18:27:27.850Z,97791.38
2023-01-07T18:29:57.062Z,97779.56
2023-01-07T18:32:25.423Z,97788.88
2023-01-07T18:34:54.029Z,97784.66
2023-01-07T18:37:24.164Z,97788.91
2023-01-07T18:39:52.282Z,97781.31
2023-01-07T18:42:20.750Z,97786.44
2023-01-07T18:44:49.093Z,97772.03
2023-01-07T18:47:17.393Z,97764.44
2023-01-07T18:49:46.356Z,97772.91
2023-01-07T18:52:15.170Z,97782.22
2023-01-07T18:54:46.191Z,97774.66
2023-01-07T18:57:15.936Z,97777.13
2023-01-07T18:59:44.314Z,97780.50
2023-01-07T19:02:16.735Z,97767.81
2023-01-07T19:04:45.284Z,97774.59
2023-01-07T19:07:14.571Z,97781.38
2023-01-07T19:09:44.387Z,97781.34
2023-01-07T19:12:13.596Z,97786.47
2023-01-07T19:14:42.534Z,97773.72
2023-01-07T19:17:11.606Z,97783.88
2023-01-07T19:19:47.826Z,97778.78
2023-01-07T19:22:17.176Z,97780.50
2023-01-07T19:24:47.363Z,97783.88
2023-01-07T19:27:15.793Z,97783.03
2023-01-07T19:29:44.102Z,97770.34
2023-01-07T19:32:12.549Z,97769.47
2023-01-07T19:34:41.362Z,97773.69
2023-01-07T19:37:10.471Z,97773.69
2023-01-07T19:39:40.236Z,97752.56
2023-01-07T19:42:13.166Z,97780.53
2023-01-07T19:44:41.865Z,97776.31
2023-01-07T19:47:10.667Z,97769.53
2023-01-07T19:49:39.504Z,97763.59
2023-01-07T19:52:08.328Z,97759.38
2023-01-07T19:54:36.979Z,97758.50
2023-01-07T19:57:05.508Z,97756.00
2023-01-07T19:59:35.532Z,97750.03
2023-01-07T20:02:06.026Z,97761.91
2023-01-07T20:04:34.928Z,97756.84
2023-01-07T20:07:04.911Z,97750.03
2023-01-07T20:09:34.602Z,97744.94
2023-01-07T20:12:03.361Z,97727.13
2023-01-07T20:14:32.919Z,97736.47
2023-01-07T20:17:03.133Z,97737.31
2023-01-07T20:19:31.697Z,97738.22
2023-01-07T20:22:01.082Z,97734.75
2023-01-07T20:24:29.964Z,97725.41
2023-01-07T20:26:58.804Z,97727.97
2023-01-07T20:29:27.389Z,97733.03
2023-01-07T20:31:56.852Z,97727.09
2023-01-07T20:34:26.876Z,97723.72
2023-01-07T20:36:55.995Z,97721.22
2023-01-07T20:39:25.075Z,97722.91
2023-01-07T20:41:54.622Z,97716.19
2023-01-07T20:44:24.337Z,97728.03
2023-01-07T20:46:58.981Z,97732.31
2023-01-07T20:49:32.321Z,97717.03
2023-01-07T20:52:02.177Z,97717.88
2023-01-07T20:54:31.455Z,97711.09
2023-01-07T20:57:00.418Z,97694.16
2023-01-07T20:59:31.726Z,97694.97
2023-01-07T21:02:02.194Z,97697.56
2023-01-07T21:04:32.907Z,97692.53
2023-01-07T21:07:02.794Z,97698.41
2023-01-07T21:09:31.600Z,97699.25
2023-01-07T21:12:00.174Z,97715.34
2023-01-07T21:14:30.706Z,97695.03
2023-01-07T21:16:59.248Z,97700.06
2023-01-07T21:19:29.430Z,97700.06
2023-01-07T21:22:00.785Z,97701.81
2023-01-07T21:24:29.620Z,97695.88
2023-01-07T21:26:58.146Z,97685.72
2023-01-07T21:29:26.869Z,97684.06
2023-01-07T21:31:56.097Z,97679.00
2023-01-07T21:34:25.051Z,97689.16
2023-01-07T21:36:53.732Z,97698.47
2023-01-07T21:39:24.680Z,97692.56
2023-01-07T21:41:55.197Z,97693.38
2023-01-07T21:44:24.409Z,97690.84
2023-01-07T21:46:53.235Z,97683.22
2023-01-07T21:49:39.336Z,97693.44
2023-01-07T21:52:08.451Z,97687.47
2023-01-07T21:54:39.192Z,97679.03
2023-01-07T21:57:08.228Z,97680.69
2023-01-07T21:59:37.948Z,97684.94
2023-01-07T22:02:07.268Z,97675.66
2023-01-07T22:04:36.330Z,97690.94
2023-01-07T22:07:05.502Z,97685.88
2023-01-07T22:09:33.947Z,97675.72
2023-01-07T22:12:04.480Z,97691.84
2023-01-07T22:14:33.251Z,97680.03
2023-01-07T22:17:02.269Z,97692.72
2023-01-07T22:19:32.685Z,97700.38
2023-01-07T22:22:01.698Z,97697.84
2023-01-07T22:24:30.327Z,97691.91
2023-01-07T22:26:59.416Z,97689.34
2023-01-07T22:29:31.234Z,97694.44
2023-01-07T22:32:00.530Z,97679.19
2023-01-07T22:34:29.622Z,97688.50
2023-01-07T22:37:04.867Z,97693.59
2023-01-07T22:39:39.326Z,97689.38
2023-01-07T22:42:12.335Z,97676.66
2023-01-07T22:44:46.931Z,97682.59
2023-01-07T22:47:19.085Z,97681.75
2023-01-07T22:49:50.017Z,97685.97
2023-01-07T22:52:20.240Z,97684.28
2023-01-07T22:54:50.012Z,97677.53
2023-01-07T22:57:18.931Z,97677.53
2023-01-07T22:59:49.351Z,97671.59
2023-01-07T23:02:18.947Z,97658.88
2023-01-07T23:04:48.879Z,97663.97
2023-01-07T23:07:17.789Z,97658.06
2023-01-07T23:09:50.128Z,97661.44
2023-01-07T23:12:19.611Z,97663.97
2023-01-07T23:14:51.561Z,97655.53
2023-01-07T23:17:20.380Z,97658.06
2023-01-07T23:19:51.034Z,97654.63
2023-01-07T23:22:19.986Z,97650.31
2023-01-07T23:24:48.892Z,97638.50
2023-01-07T23:27:17.999Z,97626.75
2023-01-07T23:29:46.681Z,97641.97
2023-01-07T23:32:17.832Z,97627.59
2023-01-07T23:34:46.627Z,97619.97
2023-01-07T23:37:15.608Z,97625.03
2023-01-07T23:39:44.879Z,97613.91
2023-01-07T23:42:16.089Z,97612.28
2023-01-07T23:44:44.826Z,97619.09
2023-01-07T23:47:13.835Z,97610.66
2023-01-07T23:49:45.726Z,97616.59
2023-01-07T23:52:14.344Z,97616.59
2023-01-07T23:54:43.427Z,97592.06
2023-01-07T23:57:12.857Z,97591.25
2023-01-07T23:59:42.447Z,97599.66
